sensor_id;sensor_type;location;lat;lon;timestamp;temperature;humidity
50758;DHT22;36732;47.980;11.652;2024-01-25T00:01:17;10.40;71.50
50758;DHT22;36732;47.980;11.652;2024-01-25T00:03:43;10.40;71.80
50758;DHT22;36732;47.980;11.652;2024-01-25T00:06:08;10.40;71.80
50758;DHT22;36732;47.980;11.652;2024-01-25T00:08:34;10.40;71.90
50758;DHT22;36732;47.980;11.652;2024-01-25T00:11:02;10.40;72.00
50758;DHT22;36732;47.980;11.652;2024-01-25T00:13:28;10.40;72.00
50758;DHT22;36732;47.980;11.652;2024-01-25T00:15:53;10.40;72.00
50758;DHT22;36732;47.980;11.652;2024-01-25T00:18:20;10.30;71.90
50758;DHT22;36732;47.980;11.652;2024-01-25T00:20:45;10.30;71.90
50758;DHT22;36732;47.980;11.652;2024-01-25T00:23:11;10.30;71.90
50758;DHT22;36732;47.980;11.652;2024-01-25T00:25:37;10.30;72.00
50758;DHT22;36732;47.980;11.652;2024-01-25T00:28:03;10.30;72.10
50758;DHT22;36732;47.980;11.652;2024-01-25T00:30:29;10.30;72.00
50758;DHT22;36732;47.980;11.652;2024-01-25T00:32:56;10.30;72.10
50758;DHT22;36732;47.980;11.652;2024-01-25T00:35:23;10.30;72.10
50758;DHT22;36732;47.980;11.652;2024-01-25T00:37:49;10.30;71.90
50758;DHT22;36732;47.980;11.652;2024-01-25T00:40:15;10.30;71.90
50758;DHT22;36732;47.980;11.652;2024-01-25T00:42:43;10.30;72.00
50758;DHT22;36732;47.980;11.652;2024-01-25T00:45:10;10.30;71.90
50758;DHT22;36732;47.980;11.652;2024-01-25T00:47:37;10.30;72.00
50758;DHT22;36732;47.980;11.652;2024-01-25T00:50:04;10.30;71.90
50758;DHT22;36732;47.980;11.652;2024-01-25T00:52:30;10.30;71.80
50758;DHT22;36732;47.980;11.652;2024-01-25T00:54:56;10.30;71.70
50758;DHT22;36732;47.980;11.652;2024-01-25T00:57:22;10.30;71.70
50758;DHT22;36732;47.980;11.652;2024-01-25T00:59:48;10.30;71.80
50758;DHT22;36732;47.980;11.652;2024-01-25T01:02:14;10.30;71.70
50758;DHT22;36732;47.980;11.652;2024-01-25T01:04:40;10.30;71.50
50758;DHT22;36732;47.980;11.652;2024-01-25T01:07:07;10.30;71.60
50758;DHT22;36732;47.980;11.652;2024-01-25T01:09:33;10.30;71.70
50758;DHT22;36732;47.980;11.652;2024-01-25T01:11:59;10.30;71.60
50758;DHT22;36732;47.980;11.652;2024-01-25T01:14:25;10.30;71.50
50758;DHT22;36732;47.980;11.652;2024-01-25T01:16:51;10.30;71.60
50758;DHT22;36732;47.980;11.652;2024-01-25T01:19:17;10.30;71.80
50758;DHT22;36732;47.980;11.652;2024-01-25T01:21:43;10.30;71.80
50758;DHT22;36732;47.980;11.652;2024-01-25T01:24:12;10.30;71.60
50758;DHT22;36732;47.980;11.652;2024-01-25T01:26:38;10.30;71.60
50758;DHT22;36732;47.980;11.652;2024-01-25T01:29:04;10.30;71.50
50758;DHT22;36732;47.980;11.652;2024-01-25T01:31:30;10.30;71.30
50758;DHT22;36732;47.980;11.652;2024-01-25T01:33:56;10.30;71.30
50758;DHT22;36732;47.980;11.652;2024-01-25T01:36:23;10.30;71.40
50758;DHT22;36732;47.980;11.652;2024-01-25T01:38:49;10.30;71.50
50758;DHT22;36732;47.980;11.652;2024-01-25T01:41:14;10.30;71.40
50758;DHT22;36732;47.980;11.652;2024-01-25T01:43:40;10.30;71.30
50758;DHT22;36732;47.980;11.652;2024-01-25T01:46:37;10.20;71.30
50758;DHT22;36732;47.980;11.652;2024-01-25T01:49:07;10.20;71.50
50758;DHT22;36732;47.980;11.652;2024-01-25T01:51:34;10.20;71.30
50758;DHT22;36732;47.980;11.652;2024-01-25T01:54:06;10.20;71.40
50758;DHT22;36732;47.980;11.652;2024-01-25T01:56:32;10.20;71.50
50758;DHT22;36732;47.980;11.652;2024-01-25T01:59:07;10.20;71.40
50758;DHT22;36732;47.980;11.652;2024-01-25T02:01:35;10.20;71.60
50758;DHT22;36732;47.980;11.652;2024-01-25T02:04:01;10.20;71.40
50758;DHT22;36732;47.980;11.652;2024-01-25T02:06:26;10.20;71.60
50758;DHT22;36732;47.980;11.652;2024-01-25T02:08:52;10.20;71.70
50758;DHT22;36732;47.980;11.652;2024-01-25T02:11:21;10.20;71.60
50758;DHT22;36732;47.980;11.652;2024-01-25T02:13:47;10.20;71.70
50758;DHT22;36732;47.980;11.652;2024-01-25T02:16:13;10.20;71.80
50758;DHT22;36732;47.980;11.652;2024-01-25T02:18:41;10.20;71.90
50758;DHT22;36732;47.980;11.652;2024-01-25T02:21:07;10.20;72.00
50758;DHT22;36732;47.980;11.652;2024-01-25T02:23:33;10.20;71.80
50758;DHT22;36732;47.980;11.652;2024-01-25T02:25:58;10.20;71.70
50758;DHT22;36732;47.980;11.652;2024-01-25T02:28:24;10.20;71.70
50758;DHT22;36732;47.980;11.652;2024-01-25T02:30:50;10.20;71.70
50758;DHT22;36732;47.980;11.652;2024-01-25T02:33:16;10.20;71.70
50758;DHT22;36732;47.980;11.652;2024-01-25T02:35:42;10.20;71.80
50758;DHT22;36732;47.980;11.652;2024-01-25T02:38:07;10.20;71.80
50758;DHT22;36732;47.980;11.652;2024-01-25T02:40:33;10.20;71.90
50758;DHT22;36732;47.980;11.652;2024-01-25T02:42:59;10.20;71.90
50758;DHT22;36732;47.980;11.652;2024-01-25T02:45:25;10.20;71.80
50758;DHT22;36732;47.980;11.652;2024-01-25T02:47:50;10.20;71.90
50758;DHT22;36732;47.980;11.652;2024-01-25T02:50:16;10.20;71.80
50758;DHT22;36732;47.980;11.652;2024-01-25T02:52:42;10.20;71.80
50758;DHT22;36732;47.980;11.652;2024-01-25T02:55:08;10.20;71.80
50758;DHT22;36732;47.980;11.652;2024-01-25T02:57:34;10.20;71.80
50758;DHT22;36732;47.980;11.652;2024-01-25T02:59:59;10.20;71.80
50758;DHT22;36732;47.980;11.652;2024-01-25T03:02:25;10.20;71.90
50758;DHT22;36732;47.980;11.652;2024-01-25T03:04:51;10.20;72.00
50758;DHT22;36732;47.980;11.652;2024-01-25T03:07:17;10.20;72.00
50758;DHT22;36732;47.980;11.652;2024-01-25T03:09:42;10.20;72.00
50758;DHT22;36732;47.980;11.652;2024-01-25T03:12:08;10.10;72.00
50758;DHT22;36732;47.980;11.652;2024-01-25T03:14:34;10.10;72.10
50758;DHT22;36732;47.980;11.652;2024-01-25T03:16:59;10.20;72.10
50758;DHT22;36732;47.980;11.652;2024-01-25T03:19:27;10.20;72.20
50758;DHT22;36732;47.980;11.652;2024-01-25T03:21:53;10.10;72.20
50758;DHT22;36732;47.980;11.652;2024-01-25T03:24:22;10.20;72.40
50758;DHT22;36732;47.980;11.652;2024-01-25T03:26:48;10.10;72.30
50758;DHT22;36732;47.980;11.652;2024-01-25T03:29:14;10.10;72.30
50758;DHT22;36732;47.980;11.652;2024-01-25T03:31:40;10.10;72.30
50758;DHT22;36732;47.980;11.652;2024-01-25T03:34:05;10.10;72.30
50758;DHT22;36732;47.980;11.652;2024-01-25T03:36:31;10.10;72.30
50758;DHT22;36732;47.980;11.652;2024-01-25T03:38:57;10.10;72.40
50758;DHT22;36732;47.980;11.652;2024-01-25T03:41:23;10.10;72.40
50758;DHT22;36732;47.980;11.652;2024-01-25T03:43:49;10.10;72.40
50758;DHT22;36732;47.980;11.652;2024-01-25T03:46:15;10.10;72.50
50758;DHT22;36732;47.980;11.652;2024-01-25T03:48:41;10.10;72.50
50758;DHT22;36732;47.980;11.652;2024-01-25T03:51:07;10.10;72.50
50758;DHT22;36732;47.980;11.652;2024-01-25T03:53:33;10.10;72.60
50758;DHT22;36732;47.980;11.652;2024-01-25T03:55:59;10.10;72.60
50758;DHT22;36732;47.980;11.652;2024-01-25T03:58:25;10.10;72.60
50758;DHT22;36732;47.980;11.652;2024-01-25T04:00:51;10.00;72.50
50758;DHT22;36732;47.980;11.652;2024-01-25T04:03:16;10.10;72.60
50758;DHT22;36732;47.980;11.652;2024-01-25T04:05:42;10.10;72.60
50758;DHT22;36732;47.980;11.652;2024-01-25T04:08:08;10.10;72.60
50758;DHT22;36732;47.980;11.652;2024-01-25T04:10:34;10.10;72.50
50758;DHT22;36732;47.980;11.652;2024-01-25T04:12:59;10.00;72.50
50758;DHT22;36732;47.980;11.652;2024-01-25T04:15:26;10.00;72.50
50758;DHT22;36732;47.980;11.652;2024-01-25T04:17:52;10.00;72.40
50758;DHT22;36732;47.980;11.652;2024-01-25T04:20:18;10.00;72.50
50758;DHT22;36732;47.980;11.652;2024-01-25T04:22:44;10.00;72.50
50758;DHT22;36732;47.980;11.652;2024-01-25T04:25:10;10.00;72.50
50758;DHT22;36732;47.980;11.652;2024-01-25T04:27:37;10.00;72.50
50758;DHT22;36732;47.980;11.652;2024-01-25T04:30:04;10.00;72.40
50758;DHT22;36732;47.980;11.652;2024-01-25T04:32:31;10.00;72.40
50758;DHT22;36732;47.980;11.652;2024-01-25T04:34:56;10.00;72.30
50758;DHT22;36732;47.980;11.652;2024-01-25T04:37:22;10.00;72.30
50758;DHT22;36732;47.980;11.652;2024-01-25T04:39:48;10.00;72.20
50758;DHT22;36732;47.980;11.652;2024-01-25T04:42:13;10.00;72.20
50758;DHT22;36732;47.980;11.652;2024-01-25T04:44:39;10.00;72.20
50758;DHT22;36732;47.980;11.652;2024-01-25T04:47:05;10.00;72.20
50758;DHT22;36732;47.980;11.652;2024-01-25T04:49:31;10.00;72.20
50758;DHT22;36732;47.980;11.652;2024-01-25T04:51:56;10.00;72.20
50758;DHT22;36732;47.980;11.652;2024-01-25T04:54:22;10.00;72.10
50758;DHT22;36732;47.980;11.652;2024-01-25T04:56:48;10.00;72.10
50758;DHT22;36732;47.980;11.652;2024-01-25T04:59:13;9.90;72.00
50758;DHT22;36732;47.980;11.652;2024-01-25T05:01:39;10.00;72.00
50758;DHT22;36732;47.980;11.652;2024-01-25T05:04:05;10.00;71.90
50758;DHT22;36732;47.980;11.652;2024-01-25T05:06:30;10.00;72.00
50758;DHT22;36732;47.980;11.652;2024-01-25T05:08:56;10.00;72.10
50758;DHT22;36732;47.980;11.652;2024-01-25T05:11:22;10.00;72.10
50758;DHT22;36732;47.980;11.652;2024-01-25T05:13:48;10.00;72.20
50758;DHT22;36732;47.980;11.652;2024-01-25T05:16:13;9.90;72.10
50758;DHT22;36732;47.980;11.652;2024-01-25T05:18:39;10.00;72.20
50758;DHT22;36732;47.980;11.652;2024-01-25T05:21:05;10.00;72.20
50758;DHT22;36732;47.980;11.652;2024-01-25T05:23:30;10.00;72.20
50758;DHT22;36732;47.980;11.652;2024-01-25T05:25:56;9.90;72.20
50758;DHT22;36732;47.980;11.652;2024-01-25T05:28:22;10.00;72.20
50758;DHT22;36732;47.980;11.652;2024-01-25T05:30:49;10.00;72.20
50758;DHT22;36732;47.980;11.652;2024-01-25T05:33:15;10.00;72.20
50758;DHT22;36732;47.980;11.652;2024-01-25T05:35:41;9.90;72.30
50758;DHT22;36732;47.980;11.652;2024-01-25T05:38:07;9.90;72.30
50758;DHT22;36732;47.980;11.652;2024-01-25T05:40:33;10.00;72.20
50758;DHT22;36732;47.980;11.652;2024-01-25T05:42:59;10.00;72.20
50758;DHT22;36732;47.980;11.652;2024-01-25T05:45:25;10.00;72.20
50758;DHT22;36732;47.980;11.652;2024-01-25T05:47:51;9.90;72.20
50758;DHT22;36732;47.980;11.652;2024-01-25T05:50:17;9.90;72.20
50758;DHT22;36732;47.980;11.652;2024-01-25T05:52:43;9.90;72.10
50758;DHT22;36732;47.980;11.652;2024-01-25T05:55:09;9.90;72.20
50758;DHT22;36732;47.980;11.652;2024-01-25T05:57:36;9.90;72.40
50758;DHT22;36732;47.980;11.652;2024-01-25T06:00:03;9.90;72.50
50758;DHT22;36732;47.980;11.652;2024-01-25T06:02:30;9.90;72.50
50758;DHT22;36732;47.980;11.652;2024-01-25T06:04:56;9.90;72.60
50758;DHT22;36732;47.980;11.652;2024-01-25T06:07:24;10.00;72.50
50758;DHT22;36732;47.980;11.652;2024-01-25T06:09:50;9.90;72.40
50758;DHT22;36732;47.980;11.652;2024-01-25T06:12:15;9.90;72.30
50758;DHT22;36732;47.980;11.652;2024-01-25T06:14:42;9.90;72.20
50758;DHT22;36732;47.980;11.652;2024-01-25T06:17:07;9.90;72.20
50758;DHT22;36732;47.980;11.652;2024-01-25T06:19:33;9.90;72.10
50758;DHT22;36732;47.980;11.652;2024-01-25T06:22:00;9.90;72.00
50758;DHT22;36732;47.980;11.652;2024-01-25T06:24:26;9.90;72.00
50758;DHT22;36732;47.980;11.652;2024-01-25T06:26:53;9.90;72.00
50758;DHT22;36732;47.980;11.652;2024-01-25T06:29:19;9.90;72.00
50758;DHT22;36732;47.980;11.652;2024-01-25T06:31:45;9.90;71.90
50758;DHT22;36732;47.980;11.652;2024-01-25T06:34:11;9.90;72.00
50758;DHT22;36732;47.980;11.652;2024-01-25T06:36:37;9.90;71.90
50758;DHT22;36732;47.980;11.652;2024-01-25T06:39:03;9.90;71.90
50758;DHT22;36732;47.980;11.652;2024-01-25T06:41:32;10.00;71.90
50758;DHT22;36732;47.980;11.652;2024-01-25T06:43:58;9.90;71.90
50758;DHT22;36732;47.980;11.652;2024-01-25T06:46:24;9.90;72.00
50758;DHT22;36732;47.980;11.652;2024-01-25T06:48:50;9.90;71.80
50758;DHT22;36732;47.980;11.652;2024-01-25T06:51:16;9.90;71.70
50758;DHT22;36732;47.980;11.652;2024-01-25T06:53:42;9.90;71.70
50758;DHT22;36732;47.980;11.652;2024-01-25T06:56:08;9.90;71.70
50758;DHT22;36732;47.980;11.652;2024-01-25T06:58:34;9.90;71.60
50758;DHT22;36732;47.980;11.652;2024-01-25T07:01:00;9.90;71.70
50758;DHT22;36732;47.980;11.652;2024-01-25T07:03:25;9.90;71.60
50758;DHT22;36732;47.980;11.652;2024-01-25T07:05:51;9.90;71.60
50758;DHT22;36732;47.980;11.652;2024-01-25T07:08:17;9.90;71.50
50758;DHT22;36732;47.980;11.652;2024-01-25T07:10:44;9.90;71.50
50758;DHT22;36732;47.980;11.652;2024-01-25T07:13:10;9.90;71.50
50758;DHT22;36732;47.980;11.652;2024-01-25T07:15:36;9.90;71.50
50758;DHT22;36732;47.980;11.652;2024-01-25T07:18:02;9.90;71.40
50758;DHT22;36732;47.980;11.652;2024-01-25T07:20:28;9.90;71.30
50758;DHT22;36732;47.980;11.652;2024-01-25T07:22:54;9.90;71.30
50758;DHT22;36732;47.980;11.652;2024-01-25T07:25:20;9.90;71.30
50758;DHT22;36732;47.980;11.652;2024-01-25T07:27:46;9.90;71.30
50758;DHT22;36732;47.980;11.652;2024-01-25T07:30:13;9.90;71.20
50758;DHT22;36732;47.980;11.652;2024-01-25T07:32:39;9.90;71.20
50758;DHT22;36732;47.980;11.652;2024-01-25T07:35:08;9.90;71.10
50758;DHT22;36732;47.980;11.652;2024-01-25T07:37:35;9.90;71.30
50758;DHT22;36732;47.980;11.652;2024-01-25T07:40:01;9.90;71.30
50758;DHT22;36732;47.980;11.652;2024-01-25T07:42:29;9.90;71.30
50758;DHT22;36732;47.980;11.652;2024-01-25T07:44:55;9.90;71.30
50758;DHT22;36732;47.980;11.652;2024-01-25T07:47:20;9.90;71.40
50758;DHT22;36732;47.980;11.652;2024-01-25T07:49:46;9.90;71.40
50758;DHT22;36732;47.980;11.652;2024-01-25T07:52:12;9.90;71.40
50758;DHT22;36732;47.980;11.652;2024-01-25T07:54:37;9.90;71.50
50758;DHT22;36732;47.980;11.652;2024-01-25T07:57:03;9.90;71.50
50758;DHT22;36732;47.980;11.652;2024-01-25T07:59:29;9.90;71.30
50758;DHT22;36732;47.980;11.652;2024-01-25T08:01:54;9.90;71.40
50758;DHT22;36732;47.980;11.652;2024-01-25T08:04:20;9.90;71.30
50758;DHT22;36732;47.980;11.652;2024-01-25T08:06:46;9.90;71.10
50758;DHT22;36732;47.980;11.652;2024-01-25T08:09:12;9.90;71.10
50758;DHT22;36732;47.980;11.652;2024-01-25T08:11:37;9.90;71.10
50758;DHT22;36732;47.980;11.652;2024-01-25T08:14:03;9.90;71.10
50758;DHT22;36732;47.980;11.652;2024-01-25T08:16:29;9.90;71.10
50758;DHT22;36732;47.980;11.652;2024-01-25T08:18:55;9.90;71.10
50758;DHT22;36732;47.980;11.652;2024-01-25T08:21:21;9.90;71.10
50758;DHT22;36732;47.980;11.652;2024-01-25T08:23:46;9.90;71.10
50758;DHT22;36732;47.980;11.652;2024-01-25T08:26:12;9.90;71.10
50758;DHT22;36732;47.980;11.652;2024-01-25T08:28:40;9.90;71.00
50758;DHT22;36732;47.980;11.652;2024-01-25T08:31:06;9.90;71.00
50758;DHT22;36732;47.980;11.652;2024-01-25T08:33:31;9.90;70.90
50758;DHT22;36732;47.980;11.652;2024-01-25T08:35:57;9.90;70.70
50758;DHT22;36732;47.980;11.652;2024-01-25T08:38:23;9.90;70.60
50758;DHT22;36732;47.980;11.652;2024-01-25T08:40:49;9.90;70.30
50758;DHT22;36732;47.980;11.652;2024-01-25T08:43:14;9.90;70.20
50758;DHT22;36732;47.980;11.652;2024-01-25T08:45:40;9.90;70.10
50758;DHT22;36732;47.980;11.652;2024-01-25T08:48:06;9.90;70.10
50758;DHT22;36732;47.980;11.652;2024-01-25T08:50:34;9.90;70.10
50758;DHT22;36732;47.980;11.652;2024-01-25T08:53:01;9.80;70.00
50758;DHT22;36732;47.980;11.652;2024-01-25T08:55:27;9.90;70.00
50758;DHT22;36732;47.980;11.652;2024-01-25T08:57:52;9.90;69.90
50758;DHT22;36732;47.980;11.652;2024-01-25T09:00:18;9.90;69.70
50758;DHT22;36732;47.980;11.652;2024-01-25T09:02:44;9.80;69.60
50758;DHT22;36732;47.980;11.652;2024-01-25T09:05:10;9.90;69.70
50758;DHT22;36732;47.980;11.652;2024-01-25T09:07:36;9.90;69.70
50758;DHT22;36732;47.980;11.652;2024-01-25T09:10:03;9.80;69.40
50758;DHT22;36732;47.980;11.652;2024-01-25T09:12:30;9.80;69.40
50758;DHT22;36732;47.980;11.652;2024-01-25T09:14:56;9.90;69.60
50758;DHT22;36732;47.980;11.652;2024-01-25T09:17:21;9.90;69.50
50758;DHT22;36732;47.980;11.652;2024-01-25T09:19:51;9.80;69.40
50758;DHT22;36732;47.980;11.652;2024-01-25T09:22:17;9.80;69.30
50758;DHT22;36732;47.980;11.652;2024-01-25T09:24:46;9.80;69.40
50758;DHT22;36732;47.980;11.652;2024-01-25T09:27:12;9.80;69.40
50758;DHT22;36732;47.980;11.652;2024-01-25T09:29:39;9.80;69.40
50758;DHT22;36732;47.980;11.652;2024-01-25T09:32:06;9.80;69.30
50758;DHT22;36732;47.980;11.652;2024-01-25T09:34:34;9.80;69.50
50758;DHT22;36732;47.980;11.652;2024-01-25T09:37:00;9.90;69.50
50758;DHT22;36732;47.980;11.652;2024-01-25T09:39:26;9.80;70.20
50758;DHT22;36732;47.980;11.652;2024-01-25T09:41:52;9.90;69.60
50758;DHT22;36732;47.980;11.652;2024-01-25T09:44:18;9.80;69.30
50758;DHT22;36732;47.980;11.652;2024-01-25T09:46:45;9.80;69.50
50758;DHT22;36732;47.980;11.652;2024-01-25T09:49:13;9.80;69.60
50758;DHT22;36732;47.980;11.652;2024-01-25T09:51:41;9.90;69.30
50758;DHT22;36732;47.980;11.652;2024-01-25T09:54:08;9.80;69.20
50758;DHT22;36732;47.980;11.652;2024-01-25T09:56:34;9.90;69.10
50758;DHT22;36732;47.980;11.652;2024-01-25T09:59:01;9.90;69.10
50758;DHT22;36732;47.980;11.652;2024-01-25T10:01:28;9.90;69.20
50758;DHT22;36732;47.980;11.652;2024-01-25T10:03:54;9.90;69.10
50758;DHT22;36732;47.980;11.652;2024-01-25T10:06:23;9.90;69.10
50758;DHT22;36732;47.980;11.652;2024-01-25T10:08:49;9.90;69.30
50758;DHT22;36732;47.980;11.652;2024-01-25T10:11:15;9.90;69.10
50758;DHT22;36732;47.980;11.652;2024-01-25T10:13:42;9.90;69.00
50758;DHT22;36732;47.980;11.652;2024-01-25T10:16:12;9.90;69.10
50758;DHT22;36732;47.980;11.652;2024-01-25T10:18:39;9.90;69.10
50758;DHT22;36732;47.980;11.652;2024-01-25T10:21:06;9.90;69.40
50758;DHT22;36732;47.980;11.652;2024-01-25T10:23:31;9.90;69.50
50758;DHT22;36732;47.980;11.652;2024-01-25T10:25:58;9.90;69.40
50758;DHT22;36732;47.980;11.652;2024-01-25T10:28:24;9.90;69.40
50758;DHT22;36732;47.980;11.652;2024-01-25T10:30:56;9.90;69.40
50758;DHT22;36732;47.980;11.652;2024-01-25T10:33:24;10.00;69.60
50758;DHT22;36732;47.980;11.652;2024-01-25T10:35:54;9.90;69.50
50758;DHT22;36732;47.980;11.652;2024-01-25T10:38:21;10.00;69.50
50758;DHT22;36732;47.980;11.652;2024-01-25T10:40:47;10.00;69.60
50758;DHT22;36732;47.980;11.652;2024-01-25T10:43:13;10.00;69.60
50758;DHT22;36732;47.980;11.652;2024-01-25T10:45:39;10.00;69.40
50758;DHT22;36732;47.980;11.652;2024-01-25T10:48:06;10.00;69.40
50758;DHT22;36732;47.980;11.652;2024-01-25T10:50:32;10.00;69.50
50758;DHT22;36732;47.980;11.652;2024-01-25T10:52:58;10.00;69.60
50758;DHT22;36732;47.980;11.652;2024-01-25T10:55:25;10.00;69.30
50758;DHT22;36732;47.980;11.652;2024-01-25T10:57:52;10.00;69.20
50758;DHT22;36732;47.980;11.652;2024-01-25T11:00:21;10.00;69.20
50758;DHT22;36732;47.980;11.652;2024-01-25T11:02:47;10.00;68.90
50758;DHT22;36732;47.980;11.652;2024-01-25T11:05:16;10.10;68.90
50758;DHT22;36732;47.980;11.652;2024-01-25T11:07:47;10.10;68.70
50758;DHT22;36732;47.980;11.652;2024-01-25T11:10:25;10.10;68.60
50758;DHT22;36732;47.980;11.652;2024-01-25T11:12:55;10.10;69.10
50758;DHT22;36732;47.980;11.652;2024-01-25T11:15:24;10.10;68.60
50758;DHT22;36732;47.980;11.652;2024-01-25T11:17:56;10.10;68.60
50758;DHT22;36732;47.980;11.652;2024-01-25T11:20:23;10.20;68.40
50758;DHT22;36732;47.980;11.652;2024-01-25T11:23:03;10.20;68.20
50758;DHT22;36732;47.980;11.652;2024-01-25T11:25:35;10.20;67.50
50758;DHT22;36732;47.980;11.652;2024-01-25T11:28:03;10.20;67.60
50758;DHT22;36732;47.980;11.652;2024-01-25T11:30:34;10.20;67.30
50758;DHT22;36732;47.980;11.652;2024-01-25T11:33:02;10.20;67.20
50758;DHT22;36732;47.980;11.652;2024-01-25T11:35:30;10.20;67.20
50758;DHT22;36732;47.980;11.652;2024-01-25T11:37:56;10.20;67.10
50758;DHT22;36732;47.980;11.652;2024-01-25T11:40:22;10.20;67.10
50758;DHT22;36732;47.980;11.652;2024-01-25T11:42:49;10.20;67.10
50758;DHT22;36732;47.980;11.652;2024-01-25T11:45:15;10.20;67.10
50758;DHT22;36732;47.980;11.652;2024-01-25T11:47:43;10.30;67.20
50758;DHT22;36732;47.980;11.652;2024-01-25T11:50:10;10.30;67.10
50758;DHT22;36732;47.980;11.652;2024-01-25T11:52:38;10.30;67.20
50758;DHT22;36732;47.980;11.652;2024-01-25T11:55:05;10.30;67.10
50758;DHT22;36732;47.980;11.652;2024-01-25T11:57:42;10.30;66.80
50758;DHT22;36732;47.980;11.652;2024-01-25T12:00:13;10.30;66.80
50758;DHT22;36732;47.980;11.652;2024-01-25T12:02:40;10.30;66.70
50758;DHT22;36732;47.980;11.652;2024-01-25T12:05:08;10.30;66.70
50758;DHT22;36732;47.980;11.652;2024-01-25T12:07:35;10.30;66.50
50758;DHT22;36732;47.980;11.652;2024-01-25T12:10:06;10.40;66.20
50758;DHT22;36732;47.980;11.652;2024-01-25T12:12:35;10.30;66.20
50758;DHT22;36732;47.980;11.652;2024-01-25T12:15:05;10.40;66.30
50758;DHT22;36732;47.980;11.652;2024-01-25T12:17:31;10.40;66.20
50758;DHT22;36732;47.980;11.652;2024-01-25T12:19:58;10.40;66.30
50758;DHT22;36732;47.980;11.652;2024-01-25T12:22:27;10.40;65.90
50758;DHT22;36732;47.980;11.652;2024-01-25T12:24:54;10.40;66.20
50758;DHT22;36732;47.980;11.652;2024-01-25T12:27:24;10.40;65.80
50758;DHT22;36732;47.980;11.652;2024-01-25T12:29:52;10.40;66.10
50758;DHT22;36732;47.980;11.652;2024-01-25T12:32:21;10.40;66.10
50758;DHT22;36732;47.980;11.652;2024-01-25T12:34:58;10.40;66.00
50758;DHT22;36732;47.980;11.652;2024-01-25T12:37:27;10.30;65.80
50758;DHT22;36732;47.980;11.652;2024-01-25T12:39:54;10.40;66.00
50758;DHT22;36732;47.980;11.652;2024-01-25T12:42:20;10.40;66.10
50758;DHT22;36732;47.980;11.652;2024-01-25T12:44:47;10.40;66.30
50758;DHT22;36732;47.980;11.652;2024-01-25T12:47:13;10.40;66.30
50758;DHT22;36732;47.980;11.652;2024-01-25T12:49:42;10.40;66.20
50758;DHT22;36732;47.980;11.652;2024-01-25T12:52:13;10.40;66.10
50758;DHT22;36732;47.980;11.652;2024-01-25T12:54:40;10.40;66.10
50758;DHT22;36732;47.980;11.652;2024-01-25T12:57:07;10.40;66.20
50758;DHT22;36732;47.980;11.652;2024-01-25T12:59:33;10.40;66.30
50758;DHT22;36732;47.980;11.652;2024-01-25T13:02:00;10.50;66.30
50758;DHT22;36732;47.980;11.652;2024-01-25T13:04:26;10.50;66.30
50758;DHT22;36732;47.980;11.652;2024-01-25T13:06:53;10.50;66.30
50758;DHT22;36732;47.980;11.652;2024-01-25T13:09:23;10.50;66.40
50758;DHT22;36732;47.980;11.652;2024-01-25T13:11:49;10.50;66.60
50758;DHT22;36732;47.980;11.652;2024-01-25T13:14:16;10.50;66.50
50758;DHT22;36732;47.980;11.652;2024-01-25T13:16:42;10.50;66.80
50758;DHT22;36732;47.980;11.652;2024-01-25T13:19:07;10.50;66.80
50758;DHT22;36732;47.980;11.652;2024-01-25T13:21:34;10.50;66.70
50758;DHT22;36732;47.980;11.652;2024-01-25T13:24:00;10.50;66.60
50758;DHT22;36732;47.980;11.652;2024-01-25T13:26:26;10.50;66.50
50758;DHT22;36732;47.980;11.652;2024-01-25T13:28:52;10.50;66.60
50758;DHT22;36732;47.980;11.652;2024-01-25T13:31:18;10.50;66.60
50758;DHT22;36732;47.980;11.652;2024-01-25T13:33:43;10.50;66.70
50758;DHT22;36732;47.980;11.652;2024-01-25T13:36:11;10.50;66.70
50758;DHT22;36732;47.980;11.652;2024-01-25T13:38:39;10.50;66.80
50758;DHT22;36732;47.980;11.652;2024-01-25T13:41:07;10.50;66.70
50758;DHT22;36732;47.980;11.652;2024-01-25T13:43:33;10.50;66.70
50758;DHT22;36732;47.980;11.652;2024-01-25T13:45:58;10.50;66.60
50758;DHT22;36732;47.980;11.652;2024-01-25T13:48:24;10.50;66.70
50758;DHT22;36732;47.980;11.652;2024-01-25T13:50:50;10.50;66.70
50758;DHT22;36732;47.980;11.652;2024-01-25T13:53:15;10.60;66.80
50758;DHT22;36732;47.980;11.652;2024-01-25T13:55:42;10.60;66.80
50758;DHT22;36732;47.980;11.652;2024-01-25T13:58:09;10.50;66.80
50758;DHT22;36732;47.980;11.652;2024-01-25T14:00:35;10.50;66.90
50758;DHT22;36732;47.980;11.652;2024-01-25T14:03:00;10.60;67.10
50758;DHT22;36732;47.980;11.652;2024-01-25T14:05:26;10.60;67.10
50758;DHT22;36732;47.980;11.652;2024-01-25T14:07:52;10.60;67.00
50758;DHT22;36732;47.980;11.652;2024-01-25T14:10:17;10.60;67.10
50758;DHT22;36732;47.980;11.652;2024-01-25T14:12:45;10.50;67.10
50758;DHT22;36732;47.980;11.652;2024-01-25T14:15:11;10.60;67.10
50758;DHT22;36732;47.980;11.652;2024-01-25T14:17:37;10.60;67.20
50758;DHT22;36732;47.980;11.652;2024-01-25T14:20:03;10.60;67.30
50758;DHT22;36732;47.980;11.652;2024-01-25T14:22:30;10.60;67.30
50758;DHT22;36732;47.980;11.652;2024-01-25T14:24:56;10.50;67.20
50758;DHT22;36732;47.980;11.652;2024-01-25T14:27:22;10.60;67.20
50758;DHT22;36732;47.980;11.652;2024-01-25T14:29:47;10.60;67.20
50758;DHT22;36732;47.980;11.652;2024-01-25T14:32:13;10.60;67.20
50758;DHT22;36732;47.980;11.652;2024-01-25T14:34:39;10.60;67.30
50758;DHT22;36732;47.980;11.652;2024-01-25T14:37:05;10.60;67.30
50758;DHT22;36732;47.980;11.652;2024-01-25T14:39:31;10.50;67.20
50758;DHT22;36732;47.980;11.652;2024-01-25T14:41:57;10.60;67.30
50758;DHT22;36732;47.980;11.652;2024-01-25T14:44:23;10.60;67.30
50758;DHT22;36732;47.980;11.652;2024-01-25T14:46:48;10.50;67.30
50758;DHT22;36732;47.980;11.652;2024-01-25T14:49:14;10.60;67.20
50758;DHT22;36732;47.980;11.652;2024-01-25T14:51:40;10.60;67.30
50758;DHT22;36732;47.980;11.652;2024-01-25T14:54:06;10.50;67.20
50758;DHT22;36732;47.980;11.652;2024-01-25T14:56:32;10.50;67.20
50758;DHT22;36732;47.980;11.652;2024-01-25T14:58:58;10.50;67.10
50758;DHT22;36732;47.980;11.652;2024-01-25T15:01:24;10.50;67.10
50758;DHT22;36732;47.980;11.652;2024-01-25T15:03:54;10.50;67.10
50758;DHT22;36732;47.980;11.652;2024-01-25T15:06:21;10.50;67.00
50758;DHT22;36732;47.980;11.652;2024-01-25T15:08:47;10.50;67.00
50758;DHT22;36732;47.980;11.652;2024-01-25T15:11:12;10.50;67.00
50758;DHT22;36732;47.980;11.652;2024-01-25T15:13:38;10.50;66.80
50758;DHT22;36732;47.980;11.652;2024-01-25T15:16:04;10.50;66.90